This is the latest recevied weather packets stored in our database for station/object WP3OF-1. If no packets are shown the sender has not sent any weather packets the latest 10 day(s).
| Time | Temp. | Humidity | Pressure | Rain* | Wind** | Luminosity | Snow |
|---|---|---|---|---|---|---|---|
| 1777921496 | 27.78° C | 77% | 1015.7 hPa | 0 mm | - | - | - |
| 1777921192 | 27.78° C | 78% | 1015.7 hPa | 0 mm | - | - | - |
| 1777920890 | 27.78° C | 79% | 1015.6 hPa | 0 mm | - | - | - |
| 1777920586 | 27.78° C | 78% | 1015.9 hPa | 0 mm | - | - | - |
| 1777920282 | 27.78° C | 78% | 1016.2 hPa | 0 mm | - | - | - |
| 1777919977 | 27.78° C | 77% | 1016.1 hPa | 0 mm | - | - | - |
| 1777919675 | 28.33° C | 76% | 1015.8 hPa | 0 mm | - | - | - |
| 1777919373 | 27.78° C | 78% | 1016.1 hPa | 0 mm | - | - | - |
| 1777919069 | 28.33° C | 75% | 1016.1 hPa | 0 mm | - | - | - |
| 1777918767 | 28.89° C | 76% | 1016.2 hPa | 0 mm | - | - | - |
| 1777918464 | 28.33° C | 75% | 1016.1 hPa | 0 mm | - | - | - |
| 1777918162 | 28.33° C | 76% | 1016.3 hPa | 0 mm | - | - | - |
| 1777917861 | 28.33° C | 76% | 1016.4 hPa | 0 mm | - | - | - |
| 1777917559 | 28.89° C | 75% | 1016.3 hPa | 0 mm | - | - | - |
| 1777917255 | 27.78° C | 76% | 1016.7 hPa | 0 mm | - | - | - |
| 1777916953 | 28.89° C | 75% | 1016.7 hPa | 0 mm | - | - | - |
| 1777916650 | 28.89° C | 75% | 1016.9 hPa | 0 mm | - | - | - |
| 1777916348 | 28.89° C | 74% | 1016.7 hPa | 0 mm | - | - | - |
| 1777916044 | 30° C | 70% | 1016.8 hPa | 0 mm | - | - | - |
| 1777915741 | 28.89° C | 72% | 1016.8 hPa | 0 mm | - | - | - |
| 1777915437 | 28.33° C | 75% | 1016.8 hPa | 0 mm | - | - | - |
| 1777915133 | 28.33° C | 74% | 1016.8 hPa | 0 mm | - | - | - |
| 1777914831 | 28.89° C | 72% | 1016.6 hPa | 0 mm | - | - | - |
| 1777914528 | 28.89° C | 74% | 1016.6 hPa | 0 mm | - | - | - |
| 1777914224 | 28.89° C | 74% | 1017 hPa | 0 mm | - | - | - |
* Rain latest hour (hover to see other rain measurements)
** Current wind speed in m/s (hover to see current wind gust speed)